sensor_id;sensor_type;location;lat;lon;timestamp;pressure;altitude;pressure_sealevel;temperature
73662;BMP280;61956;52.540;13.382;2022-08-19T00:00:49;87456.63;;;21.83
73662;BMP280;61956;52.540;13.382;2022-08-19T00:03:18;87789.31;;;21.86
73662;BMP280;61956;52.540;13.382;2022-08-19T00:05:47;87718.28;;;21.84
73662;BMP280;61956;52.540;13.382;2022-08-19T00:08:16;88114.81;;;21.88
73662;BMP280;61956;52.540;13.382;2022-08-19T00:10:45;88039.81;;;21.86
73662;BMP280;61956;52.540;13.382;2022-08-19T00:13:16;88359.53;;;21.92
73662;BMP280;61956;52.540;13.382;2022-08-19T00:15:48;88192.41;;;21.89
73662;BMP280;61956;52.540;13.382;2022-08-19T00:18:17;88169.41;;;21.89
73662;BMP280;61956;52.540;13.382;2022-08-19T00:20:51;88178.59;;;21.88
73662;BMP280;61956;52.540;13.382;2022-08-19T00:23:21;88725.25;;;21.94
73662;BMP280;61956;52.540;13.382;2022-08-19T00:25:50;88835.81;;;21.96
73662;BMP280;61956;52.540;13.382;2022-08-19T00:28:22;88902.34;;;21.98
73662;BMP280;61956;52.540;13.382;2022-08-19T00:30:51;88685.88;;;21.96
73662;BMP280;61956;52.540;13.382;2022-08-19T00:33:22;88499.03;;;21.94
73662;BMP280;61956;52.540;13.382;2022-08-19T00:35:58;88340.38;;;21.89
73662;BMP280;61956;52.540;13.382;2022-08-19T00:38:39;87964.13;;;21.83
73662;BMP280;61956;52.540;13.382;2022-08-19T00:41:12;88087.03;;;21.82
73662;BMP280;61956;52.540;13.382;2022-08-19T00:43:56;88069.25;;;21.81
73662;BMP280;61956;52.540;13.382;2022-08-19T00:46:30;88163.25;;;21.80
73662;BMP280;61956;52.540;13.382;2022-08-19T00:49:17;88270.38;;;21.80
73662;BMP280;61956;52.540;13.382;2022-08-19T00:51:54;88210.59;;;21.80
73662;BMP280;61956;52.540;13.382;2022-08-19T00:54:31;88319.66;;;21.79
73662;BMP280;61956;52.540;13.382;2022-08-19T00:57:01;88379.56;;;21.81
73662;BMP280;61956;52.540;13.382;2022-08-19T00:59:46;88469.66;;;21.81
73662;BMP280;61956;52.540;13.382;2022-08-19T01:02:22;88368.97;;;21.79
73662;BMP280;61956;52.540;13.382;2022-08-19T01:04:52;88070.34;;;21.74
73662;BMP280;61956;52.540;13.382;2022-08-19T01:07:26;88120.91;;;21.72
73662;BMP280;61956;52.540;13.382;2022-08-19T01:09:57;87976.91;;;21.71
73662;BMP280;61956;52.540;13.382;2022-08-19T01:12:28;87838.81;;;21.68
73662;BMP280;61956;52.540;13.382;2022-08-19T01:15:00;87299.81;;;21.59
73662;BMP280;61956;52.540;13.382;2022-08-19T01:17:29;87270.16;;;21.55
73662;BMP280;61956;52.540;13.382;2022-08-19T01:19:59;87793.88;;;21.57
73662;BMP280;61956;52.540;13.382;2022-08-19T01:22:34;87392.97;;;21.52
73662;BMP280;61956;52.540;13.382;2022-08-19T01:25:12;88100.78;;;21.59
73662;BMP280;61956;52.540;13.382;2022-08-19T01:27:46;88248.16;;;21.63
73662;BMP280;61956;52.540;13.382;2022-08-19T01:30:19;88054.81;;;21.60
73662;BMP280;61956;52.540;13.382;2022-08-19T01:32:51;88334.84;;;21.61
73662;BMP280;61956;52.540;13.382;2022-08-19T01:35:23;88381.53;;;21.63
73662;BMP280;61956;52.540;13.382;2022-08-19T01:38:00;88673.47;;;21.65
73662;BMP280;61956;52.540;13.382;2022-08-19T01:40:38;87779.41;;;21.56
73662;BMP280;61956;52.540;13.382;2022-08-19T01:43:08;87890.34;;;21.53
73662;BMP280;61956;52.540;13.382;2022-08-19T01:45:39;88069.13;;;21.55
73662;BMP280;61956;52.540;13.382;2022-08-19T01:48:09;88185.47;;;21.55
73662;BMP280;61956;52.540;13.382;2022-08-19T01:50:38;88328.09;;;21.56
73662;BMP280;61956;52.540;13.382;2022-08-19T01:53:11;88015.16;;;21.52
73662;BMP280;61956;52.540;13.382;2022-08-19T01:55:42;87839.66;;;21.48
73662;BMP280;61956;52.540;13.382;2022-08-19T01:58:14;87154.94;;;21.37
73662;BMP280;61956;52.540;13.382;2022-08-19T02:00:44;86894.13;;;21.30
73662;BMP280;61956;52.540;13.382;2022-08-19T02:03:14;87221.78;;;21.30
73662;BMP280;61956;52.540;13.382;2022-08-19T02:05:44;86752.25;;;21.24
73662;BMP280;61956;52.540;13.382;2022-08-19T02:08:19;86576.91;;;21.17
73662;BMP280;61956;52.540;13.382;2022-08-19T02:10:48;86479.09;;;21.12
73662;BMP280;61956;52.540;13.382;2022-08-19T02:13:18;86010.50;;;21.03
73662;BMP280;61956;52.540;13.382;2022-08-19T02:15:48;86417.97;;;21.03
73662;BMP280;61956;52.540;13.382;2022-08-19T02:18:17;86974.59;;;21.08
73662;BMP280;61956;52.540;13.382;2022-08-19T02:20:46;86717.25;;;21.05
73662;BMP280;61956;52.540;13.382;2022-08-19T02:23:19;86503.25;;;21.00
73662;BMP280;61956;52.540;13.382;2022-08-19T02:25:48;86742.13;;;21.00
73662;BMP280;61956;52.540;13.382;2022-08-19T02:28:19;87040.16;;;21.03
73662;BMP280;61956;52.540;13.382;2022-08-19T02:30:49;87119.56;;;21.04
73662;BMP280;61956;52.540;13.382;2022-08-19T02:33:18;87187.19;;;21.03
73662;BMP280;61956;52.540;13.382;2022-08-19T02:35:47;87207.53;;;21.03
73662;BMP280;61956;52.540;13.382;2022-08-19T02:38:19;87328.97;;;21.03
73662;BMP280;61956;52.540;13.382;2022-08-19T02:40:56;87252.75;;;21.01
73662;BMP280;61956;52.540;13.382;2022-08-19T02:43:29;87166.72;;;20.98
73662;BMP280;61956;52.540;13.382;2022-08-19T02:46:10;87323.66;;;20.99
73662;BMP280;61956;52.540;13.382;2022-08-19T02:48:41;87665.69;;;21.02
73662;BMP280;61956;52.540;13.382;2022-08-19T02:51:16;87579.00;;;21.00
73662;BMP280;61956;52.540;13.382;2022-08-19T02:53:49;87489.66;;;20.98
73662;BMP280;61956;52.540;13.382;2022-08-19T02:56:19;87318.91;;;20.94
73662;BMP280;61956;52.540;13.382;2022-08-19T02:58:50;87414.72;;;20.93
73662;BMP280;61956;52.540;13.382;2022-08-19T03:01:20;87568.31;;;20.94
73662;BMP280;61956;52.540;13.382;2022-08-19T03:03:51;87612.97;;;20.94
73662;BMP280;61956;52.540;13.382;2022-08-19T03:06:21;87682.53;;;20.93
73662;BMP280;61956;52.540;13.382;2022-08-19T03:08:53;87639.19;;;20.92
73662;BMP280;61956;52.540;13.382;2022-08-19T03:11:24;87925.44;;;20.94
73662;BMP280;61956;52.540;13.382;2022-08-19T03:13:56;88119.81;;;20.96
73662;BMP280;61956;52.540;13.382;2022-08-19T03:16:29;88113.22;;;20.95
73662;BMP280;61956;52.540;13.382;2022-08-19T03:19:00;87910.97;;;20.93
73662;BMP280;61956;52.540;13.382;2022-08-19T03:21:32;87742.78;;;20.89
73662;BMP280;61956;52.540;13.382;2022-08-19T03:24:07;87631.81;;;20.86
73662;BMP280;61956;52.540;13.382;2022-08-19T03:26:40;87740.06;;;20.85
73662;BMP280;61956;52.540;13.382;2022-08-19T03:29:12;87679.66;;;20.83
73662;BMP280;61956;52.540;13.382;2022-08-19T03:31:44;87690.75;;;20.81
73662;BMP280;61956;52.540;13.382;2022-08-19T03:34:15;87880.44;;;20.82
73662;BMP280;61956;52.540;13.382;2022-08-19T03:36:47;87855.47;;;20.81
73662;BMP280;61956;52.540;13.382;2022-08-19T03:39:19;87871.16;;;20.78
73662;BMP280;61956;52.540;13.382;2022-08-19T03:41:50;87619.72;;;20.75
73662;BMP280;61956;52.540;13.382;2022-08-19T03:44:23;87709.56;;;20.73
73662;BMP280;61956;52.540;13.382;2022-08-19T03:46:54;87898.63;;;20.75
73662;BMP280;61956;52.540;13.382;2022-08-19T03:49:29;87926.84;;;20.75
73662;BMP280;61956;52.540;13.382;2022-08-19T03:52:01;88071.22;;;20.75
73662;BMP280;61956;52.540;13.382;2022-08-19T03:54:36;88174.94;;;20.76
73662;BMP280;61956;52.540;13.382;2022-08-19T03:57:06;88294.41;;;20.77
73662;BMP280;61956;52.540;13.382;2022-08-19T03:59:37;88460.53;;;20.77
73662;BMP280;61956;52.540;13.382;2022-08-19T04:02:09;88490.75;;;20.78
73662;BMP280;61956;52.540;13.382;2022-08-19T04:04:41;88460.53;;;20.77
73662;BMP280;61956;52.540;13.382;2022-08-19T04:07:13;88660.84;;;20.80
73662;BMP280;61956;52.540;13.382;2022-08-19T04:09:49;88752.06;;;20.80
73662;BMP280;61956;52.540;13.382;2022-08-19T04:12:19;88880.84;;;20.82
73662;BMP280;61956;52.540;13.382;2022-08-19T04:14:48;89212.66;;;20.86
73662;BMP280;61956;52.540;13.382;2022-08-19T04:17:17;89144.38;;;20.86
73662;BMP280;61956;52.540;13.382;2022-08-19T04:19:47;89371.72;;;20.89
73662;BMP280;61956;52.540;13.382;2022-08-19T04:22:16;89385.56;;;20.90
73662;BMP280;61956;52.540;13.382;2022-08-19T04:24:45;89510.50;;;20.93
73662;BMP280;61956;52.540;13.382;2022-08-19T04:27:16;89705.19;;;20.97
73662;BMP280;61956;52.540;13.382;2022-08-19T04:29:46;89658.47;;;20.95
73662;BMP280;61956;52.540;13.382;2022-08-19T04:32:15;89999.03;;;21.00
73662;BMP280;61956;52.540;13.382;2022-08-19T04:34:44;90033.34;;;21.02
73662;BMP280;61956;52.540;13.382;2022-08-19T04:37:13;90095.88;;;21.04
73662;BMP280;61956;52.540;13.382;2022-08-19T04:39:42;89969.03;;;21.03
73662;BMP280;61956;52.540;13.382;2022-08-19T04:42:26;90062.38;;;21.04
73662;BMP280;61956;52.540;13.382;2022-08-19T04:45:09;90143.28;;;21.06
73662;BMP280;61956;52.540;13.382;2022-08-19T04:47:42;90084.78;;;21.05
73662;BMP280;61956;52.540;13.382;2022-08-19T04:50:12;90003.88;;;21.04
73662;BMP280;61956;52.540;13.382;2022-08-19T04:52:44;90137.34;;;21.05
73662;BMP280;61956;52.540;13.382;2022-08-19T04:55:14;90099.88;;;21.05
73662;BMP280;61956;52.540;13.382;2022-08-19T04:57:46;90234.75;;;21.08
73662;BMP280;61956;52.540;13.382;2022-08-19T05:00:16;90274.19;;;21.08
73662;BMP280;61956;52.540;13.382;2022-08-19T05:02:45;90267.66;;;21.09
73662;BMP280;61956;52.540;13.382;2022-08-19T05:05:15;90343.88;;;21.09
73662;BMP280;61956;52.540;13.382;2022-08-19T05:07:45;90502.44;;;21.11
73662;BMP280;61956;52.540;13.382;2022-08-19T05:10:14;90523.63;;;21.13
73662;BMP280;61956;52.540;13.382;2022-08-19T05:12:46;90434.09;;;21.11
73662;BMP280;61956;52.540;13.382;2022-08-19T05:15:15;90449.88;;;21.11
73662;BMP280;61956;52.540;13.382;2022-08-19T05:17:45;90385.41;;;21.10
73662;BMP280;61956;52.540;13.382;2022-08-19T05:20:26;90407.13;;;21.11
73662;BMP280;61956;52.540;13.382;2022-08-19T05:23:10;90506.50;;;21.12
73662;BMP280;61956;52.540;13.382;2022-08-19T05:25:42;90861.03;;;21.16
73662;BMP280;61956;52.540;13.382;2022-08-19T05:28:14;91140.78;;;21.20
73662;BMP280;61956;52.540;13.382;2022-08-19T05:30:43;91153.59;;;21.24
73662;BMP280;61956;52.540;13.382;2022-08-19T05:33:13;91355.72;;;21.27
73662;BMP280;61956;52.540;13.382;2022-08-19T05:35:43;91380.97;;;21.30
73662;BMP280;61956;52.540;13.382;2022-08-19T05:38:14;91716.84;;;21.36
73662;BMP280;61956;52.540;13.382;2022-08-19T05:40:43;91862.63;;;21.40
73662;BMP280;61956;52.540;13.382;2022-08-19T05:43:17;92162.69;;;21.48
73662;BMP280;61956;52.540;13.382;2022-08-19T05:45:47;92367.38;;;21.55
73662;BMP280;61956;52.540;13.382;2022-08-19T05:48:16;92702.59;;;21.63
73662;BMP280;61956;52.540;13.382;2022-08-19T05:50:46;92873.88;;;21.71
73662;BMP280;61956;52.540;13.382;2022-08-19T05:53:16;93202.09;;;21.79
73662;BMP280;61956;52.540;13.382;2022-08-19T05:55:45;93516.75;;;21.90
73662;BMP280;61956;52.540;13.382;2022-08-19T05:58:17;93671.28;;;21.98
73662;BMP280;61956;52.540;13.382;2022-08-19T06:00:46;93592.69;;;22.02
73662;BMP280;61956;52.540;13.382;2022-08-19T06:03:15;94090.47;;;22.15
73662;BMP280;61956;52.540;13.382;2022-08-19T06:05:44;93936.84;;;22.20
73662;BMP280;61956;52.540;13.382;2022-08-19T06:08:13;93677.28;;;22.21
73662;BMP280;61956;52.540;13.382;2022-08-19T06:10:43;93457.72;;;22.21
73662;BMP280;61956;52.540;13.382;2022-08-19T06:13:13;93669.13;;;22.25
73662;BMP280;61956;52.540;13.382;2022-08-19T06:15:45;93545.94;;;22.25
73662;BMP280;61956;52.540;13.382;2022-08-19T06:18:15;93681.34;;;22.28
73662;BMP280;61956;52.540;13.382;2022-08-19T06:20:45;93572.03;;;22.29
73662;BMP280;61956;52.540;13.382;2022-08-19T06:23:14;93911.72;;;22.36
73662;BMP280;61956;52.540;13.382;2022-08-19T06:25:44;94385.13;;;22.46
73662;BMP280;61956;52.540;13.382;2022-08-19T06:28:13;94580.22;;;22.55
73662;BMP280;61956;52.540;13.382;2022-08-19T06:30:45;94445.47;;;22.59
73662;BMP280;61956;52.540;13.382;2022-08-19T06:33:14;94276.13;;;22.60
73662;BMP280;61956;52.540;13.382;2022-08-19T06:35:43;94669.19;;;22.70
73662;BMP280;61956;52.540;13.382;2022-08-19T06:38:12;94534.13;;;22.71
73662;BMP280;61956;52.540;13.382;2022-08-19T06:40:41;94943.13;;;22.80
73662;BMP280;61956;52.540;13.382;2022-08-19T06:43:10;94990.31;;;22.87
73662;BMP280;61956;52.540;13.382;2022-08-19T06:45:41;94662.91;;;22.87
73662;BMP280;61956;52.540;13.382;2022-08-19T06:48:13;94474.03;;;22.86
73662;BMP280;61956;52.540;13.382;2022-08-19T06:50:42;94308.19;;;22.85
73662;BMP280;61956;52.540;13.382;2022-08-19T06:53:11;94365.81;;;22.86
73662;BMP280;61956;52.540;13.382;2022-08-19T06:55:41;94145.28;;;22.85
73662;BMP280;61956;52.540;13.382;2022-08-19T06:58:10;94232.84;;;22.84
73662;BMP280;61956;52.540;13.382;2022-08-19T07:00:39;94760.25;;;22.94
73662;BMP280;61956;52.540;13.382;2022-08-19T07:03:09;94681.53;;;22.99
73662;BMP280;61956;52.540;13.382;2022-08-19T07:05:42;94612.88;;;22.99
73662;BMP280;61956;52.540;13.382;2022-08-19T07:08:11;94520.47;;;22.99
73662;BMP280;61956;52.540;13.382;2022-08-19T07:10:43;94048.31;;;22.91
73662;BMP280;61956;52.540;13.382;2022-08-19T07:13:13;93893.31;;;22.86
73662;BMP280;61956;52.540;13.382;2022-08-19T07:15:43;93540.19;;;22.79
73662;BMP280;61956;52.540;13.382;2022-08-19T07:18:12;93776.97;;;22.79
73662;BMP280;61956;52.540;13.382;2022-08-19T07:20:46;94590.25;;;22.92
73662;BMP280;61956;52.540;13.382;2022-08-19T07:23:16;95259.59;;;23.06
73662;BMP280;61956;52.540;13.382;2022-08-19T07:25:45;95281.81;;;23.14
73662;BMP280;61956;52.540;13.382;2022-08-19T07:28:17;95145.75;;;23.18
73662;BMP280;61956;52.540;13.382;2022-08-19T07:30:46;94637.03;;;23.12
73662;BMP280;61956;52.540;13.382;2022-08-19T07:33:16;94938.25;;;23.17
73662;BMP280;61956;52.540;13.382;2022-08-19T07:35:48;94434.16;;;23.10
73662;BMP280;61956;52.540;13.382;2022-08-19T07:38:17;94831.13;;;23.16
73662;BMP280;61956;52.540;13.382;2022-08-19T07:40:46;94805.44;;;23.17
73662;BMP280;61956;52.540;13.382;2022-08-19T07:43:17;94525.66;;;23.13
73662;BMP280;61956;52.540;13.382;2022-08-19T07:45:46;95280.88;;;23.26
73662;BMP280;61956;52.540;13.382;2022-08-19T07:48:15;94947.69;;;23.24
73662;BMP280;61956;52.540;13.382;2022-08-19T07:50:47;94910.72;;;23.24
73662;BMP280;61956;52.540;13.382;2022-08-19T07:53:16;95199.28;;;23.28
73662;BMP280;61956;52.540;13.382;2022-08-19T07:55:46;95258.69;;;23.33
73662;BMP280;61956;52.540;13.382;2022-08-19T07:58:18;95021.31;;;23.31
73662;BMP280;61956;52.540;13.382;2022-08-19T08:00:50;94793.09;;;23.29
73662;BMP280;61956;52.540;13.382;2022-08-19T08:03:21;94434.97;;;23.22
73662;BMP280;61956;52.540;13.382;2022-08-19T08:06:20;94320.88;;;23.18
73662;BMP280;61956;52.540;13.382;2022-08-19T08:09:04;94446.97;;;23.17
73662;BMP280;61956;52.540;13.382;2022-08-19T08:11:49;94346.78;;;23.14
73662;BMP280;61956;52.540;13.382;2022-08-19T08:14:27;94429.88;;;23.13
73662;BMP280;61956;52.540;13.382;2022-08-19T08:16:59;94294.91;;;23.11
73662;BMP280;61956;52.540;13.382;2022-08-19T08:19:30;94299.94;;;23.09
73662;BMP280;61956;52.540;13.382;2022-08-19T08:22:03;94780.19;;;23.16
73662;BMP280;61956;52.540;13.382;2022-08-19T08:24:34;95106.22;;;23.24
73662;BMP280;61956;52.540;13.382;2022-08-19T08:27:03;95241.09;;;23.30
73662;BMP280;61956;52.540;13.382;2022-08-19T08:29:33;95401.69;;;23.35
73662;BMP280;61956;52.540;13.382;2022-08-19T08:32:03;95181.16;;;23.36
73662;BMP280;61956;52.540;13.382;2022-08-19T08:34:34;94562.00;;;23.24
73662;BMP280;61956;52.540;13.382;2022-08-19T08:37:06;94921.53;;;23.26
73662;BMP280;61956;52.540;13.382;2022-08-19T08:39:35;95076.50;;;23.29
73662;BMP280;61956;52.540;13.382;2022-08-19T08:42:08;95149.16;;;23.34
73662;BMP280;61956;52.540;13.382;2022-08-19T08:44:49;95012.22;;;23.32
73662;BMP280;61956;52.540;13.382;2022-08-19T08:47:25;94661.19;;;23.25
73662;BMP280;61956;52.540;13.382;2022-08-19T08:50:01;94937.69;;;23.28
73662;BMP280;61956;52.540;13.382;2022-08-19T08:52:39;95176.06;;;23.32
73662;BMP280;61956;52.540;13.382;2022-08-19T08:55:15;95285.41;;;23.35
73662;BMP280;61956;52.540;13.382;2022-08-19T08:57:52;95420.28;;;23.40
73662;BMP280;61956;52.540;13.382;2022-08-19T09:00:27;95615.28;;;23.45
73662;BMP280;61956;52.540;13.382;2022-08-19T09:02:59;95495.59;;;23.45
73662;BMP280;61956;52.540;13.382;2022-08-19T09:05:38;95762.75;;;23.50
73662;BMP280;61956;52.540;13.382;2022-08-19T09:08:20;95770.09;;;23.56
73662;BMP280;61956;52.540;13.382;2022-08-19T09:11:00;95724.72;;;23.57
73662;BMP280;61956;52.540;13.382;2022-08-19T09:13:40;95283.81;;;23.52
73662;BMP280;61956;52.540;13.382;2022-08-19T09:16:17;95506.59;;;23.53
73662;BMP280;61956;52.540;13.382;2022-08-19T09:18:52;96119.94;;;23.65
73662;BMP280;61956;52.540;13.382;2022-08-19T09:21:25;96644.84;;;23.77
73662;BMP280;61956;52.540;13.382;2022-08-19T09:23:57;96993.78;;;23.91
73662;BMP280;61956;52.540;13.382;2022-08-19T09:26:27;98145.88;;;24.27
73662;BMP280;61956;52.540;13.382;2022-08-19T09:28:57;97718.84;;;24.40
73662;BMP280;61956;52.540;13.382;2022-08-19T09:31:29;96948.16;;;24.32
73662;BMP280;61956;52.540;13.382;2022-08-19T09:33:59;96542.78;;;24.27
73662;BMP280;61956;52.540;13.382;2022-08-19T09:36:30;96654.94;;;24.33
73662;BMP280;61956;52.540;13.382;2022-08-19T09:39:05;97459.03;;;24.50
73662;BMP280;61956;52.540;13.382;2022-08-19T09:41:34;96889.97;;;24.45
73662;BMP280;61956;52.540;13.382;2022-08-19T09:44:04;96544.66;;;24.39
73662;BMP280;61956;52.540;13.382;2022-08-19T09:46:32;96752.63;;;24.44
73662;BMP280;61956;52.540;13.382;2022-08-19T09:49:02;97221.25;;;24.54
73662;BMP280;61956;52.540;13.382;2022-08-19T09:51:32;97704.81;;;24.70
73662;BMP280;61956;52.540;13.382;2022-08-19T09:54:04;97398.03;;;24.74
73662;BMP280;61956;52.540;13.382;2022-08-19T09:56:34;97014.13;;;24.72
73662;BMP280;61956;52.540;13.382;2022-08-19T09:59:03;96540.78;;;24.66
73662;BMP280;61956;52.540;13.382;2022-08-19T10:01:32;97277.59;;;24.75
73662;BMP280;61956;52.540;13.382;2022-08-19T10:04:02;97008.75;;;24.76
73662;BMP280;61956;52.540;13.382;2022-08-19T10:06:39;96544.38;;;24.72
73662;BMP280;61956;52.540;13.382;2022-08-19T10:09:11;96251.69;;;24.63
73662;BMP280;61956;52.540;13.382;2022-08-19T10:11:44;96534.34;;;24.67
73662;BMP280;61956;52.540;13.382;2022-08-19T10:14:15;96591.44;;;24.68
73662;BMP280;61956;52.540;13.382;2022-08-19T10:16:47;96000.34;;;24.56
73662;BMP280;61956;52.540;13.382;2022-08-19T10:19:18;96231.09;;;24.58
73662;BMP280;61956;52.540;13.382;2022-08-19T10:21:48;95742.34;;;24.48
73662;BMP280;61956;52.540;13.382;2022-08-19T10:24:23;96264.94;;;24.54
73662;BMP280;61956;52.540;13.382;2022-08-19T10:26:59;95649.09;;;24.44
73662;BMP280;61956;52.540;13.382;2022-08-19T10:29:29;95384.72;;;24.37
73662;BMP280;61956;52.540;13.382;2022-08-19T10:32:05;95270.34;;;24.33
73662;BMP280;61956;52.540;13.382;2022-08-19T10:34:37;95066.66;;;24.24
73662;BMP280;61956;52.540;13.382;2022-08-19T10:37:06;95283.66;;;24.24
73662;BMP280;61956;52.540;13.382;2022-08-19T10:39:40;95284.84;;;24.23
73662;BMP280;61956;52.540;13.382;2022-08-19T10:42:09;95317.34;;;24.23
73662;BMP280;61956;52.540;13.382;2022-08-19T10:44:40;95356.00;;;24.21
73662;BMP280;61956;52.540;13.382;2022-08-19T10:47:13;95617.13;;;24.24
73662;BMP280;61956;52.540;13.382;2022-08-19T10:49:43;96390.66;;;24.41
73662;BMP280;61956;52.540;13.382;2022-08-19T10:52:25;97128.03;;;24.59
73662;BMP280;61956;52.540;13.382;2022-08-19T10:55:08;96007.13;;;24.48
73662;BMP280;61956;52.540;13.382;2022-08-19T10:57:50;95323.69;;;24.31
73662;BMP280;61956;52.540;13.382;2022-08-19T11:00:21;95219.69;;;24.25
73662;BMP280;61956;52.540;13.382;2022-08-19T11:02:51;95667.81;;;24.31
73662;BMP280;61956;52.540;13.382;2022-08-19T11:05:21;95823.88;;;24.35
73662;BMP280;61956;52.540;13.382;2022-08-19T11:07:50;95755.91;;;24.32
73662;BMP280;61956;52.540;13.382;2022-08-19T11:10:23;95599.91;;;24.28
73662;BMP280;61956;52.540;13.382;2022-08-19T11:12:54;95630.03;;;24.31
73662;BMP280;61956;52.540;13.382;2022-08-19T11:15:23;95232.81;;;24.20
73662;BMP280;61956;52.540;13.382;2022-08-19T11:17:54;94626.56;;;24.06
73662;BMP280;61956;52.540;13.382;2022-08-19T11:20:23;94867.97;;;24.01
73662;BMP280;61956;52.540;13.382;2022-08-19T11:22:52;95368.59;;;24.11
73662;BMP280;61956;52.540;13.382;2022-08-19T11:25:24;95270.69;;;24.11
73662;BMP280;61956;52.540;13.382;2022-08-19T11:27:53;96227.00;;;24.26
73662;BMP280;61956;52.540;13.382;2022-08-19T11:30:22;95811.38;;;24.26
73662;BMP280;61956;52.540;13.382;2022-08-19T11:32:53;95156.50;;;24.13
73662;BMP280;61956;52.540;13.382;2022-08-19T11:35:23;95388.13;;;24.14
73662;BMP280;61956;52.540;13.382;2022-08-19T11:37:52;95498.06;;;24.15
73662;BMP280;61956;52.540;13.382;2022-08-19T11:40:24;95073.63;;;24.06
73662;BMP280;61956;52.540;13.382;2022-08-19T11:42:53;94560.16;;;23.93
73662;BMP280;61956;52.540;13.382;2022-08-19T11:45:28;94460.09;;;23.86
73662;BMP280;61956;52.540;13.382;2022-08-19T11:48:01;94557.69;;;23.84
73662;BMP280;61956;52.540;13.382;2022-08-19T11:50:32;94678.59;;;23.84
73662;BMP280;61956;52.540;13.382;2022-08-19T11:53:01;94767.28;;;23.85
73662;BMP280;61956;52.540;13.382;2022-08-19T11:55:36;94766.78;;;23.81
73662;BMP280;61956;52.540;13.382;2022-08-19T11:58:08;95133.25;;;23.87
73662;BMP280;61956;52.540;13.382;2022-08-19T12:00:38;95650.44;;;23.97
73662;BMP280;61956;52.540;13.382;2022-08-19T12:03:08;96138.69;;;24.11
73662;BMP280;61956;52.540;13.382;2022-08-19T12:05:40;96446.41;;;24.24
73662;BMP280;61956;52.540;13.382;2022-08-19T12:08:11;96404.66;;;24.28
73662;BMP280;61956;52.540;13.382;2022-08-19T12:10:43;96633.34;;;24.34
73662;BMP280;61956;52.540;13.382;2022-08-19T12:13:13;95915.78;;;24.25
73662;BMP280;61956;52.540;13.382;2022-08-19T12:15:47;95345.06;;;24.13
73662;BMP280;61956;52.540;13.382;2022-08-19T12:18:17;95731.25;;;24.17
73662;BMP280;61956;52.540;13.382;2022-08-19T12:20:47;96095.91;;;24.22
73662;BMP280;61956;52.540;13.382;2022-08-19T12:23:20;95524.09;;;24.16
73662;BMP280;61956;52.540;13.382;2022-08-19T12:25:52;96608.88;;;24.30
73662;BMP280;61956;52.540;13.382;2022-08-19T12:28:24;96836.75;;;24.40
73662;BMP280;61956;52.540;13.382;2022-08-19T12:30:56;98105.06;;;24.70
73662;BMP280;61956;52.540;13.382;2022-08-19T12:33:26;97861.78;;;24.81
73662;BMP280;61956;52.540;13.382;2022-08-19T12:36:01;97366.81;;;24.81
73662;BMP280;61956;52.540;13.382;2022-08-19T12:38:33;97368.22;;;24.86
73662;BMP280;61956;52.540;13.382;2022-08-19T12:41:08;96797.38;;;24.80
73662;BMP280;61956;52.540;13.382;2022-08-19T12:43:41;96426.94;;;24.75
73662;BMP280;61956;52.540;13.382;2022-08-19T12:46:13;96330.34;;;24.67
73662;BMP280;61956;52.540;13.382;2022-08-19T12:48:43;96860.44;;;24.72
73662;BMP280;61956;52.540;13.382;2022-08-19T12:51:16;96774.78;;;24.75
73662;BMP280;61956;52.540;13.382;2022-08-19T12:53:47;96639.66;;;24.75
73662;BMP280;61956;52.540;13.382;2022-08-19T12:56:19;96245.84;;;24.69
73662;BMP280;61956;52.540;13.382;2022-08-19T12:58:48;96762.72;;;24.74
73662;BMP280;61956;52.540;13.382;2022-08-19T13:01:18;96906.34;;;24.82
73662;BMP280;61956;52.540;13.382;2022-08-19T13:03:48;96603.91;;;24.80
73662;BMP280;61956;52.540;13.382;2022-08-19T13:06:19;97206.88;;;24.88
73662;BMP280;61956;52.540;13.382;2022-08-19T13:08:48;97873.19;;;25.08
73662;BMP280;61956;52.540;13.382;2022-08-19T13:11:21;97502.88;;;25.14
73662;BMP280;61956;52.540;13.382;2022-08-19T13:13:52;97227.97;;;25.08
73662;BMP280;61956;52.540;13.382;2022-08-19T13:16:23;96678.59;;;25.00
73662;BMP280;61956;52.540;13.382;2022-08-19T13:18:55;97248.78;;;25.09
73662;BMP280;61956;52.540;13.382;2022-08-19T13:21:26;96514.72;;;24.99
73662;BMP280;61956;52.540;13.382;2022-08-19T13:23:58;97213.13;;;25.10
73662;BMP280;61956;52.540;13.382;2022-08-19T13:26:33;97377.09;;;25.15
73662;BMP280;61956;52.540;13.382;2022-08-19T13:29:07;97300.75;;;25.23
73662;BMP280;61956;52.540;13.382;2022-08-19T13:31:49;97887.19;;;25.36
73662;BMP280;61956;52.540;13.382;2022-08-19T13:34:34;97828.72;;;25.43
73662;BMP280;61956;52.540;13.382;2022-08-19T13:37:04;97670.13;;;25.47
73662;BMP280;61956;52.540;13.382;2022-08-19T13:39:36;97031.38;;;25.35
73662;BMP280;61956;52.540;13.382;2022-08-19T13:42:08;97039.06;;;25.33
73662;BMP280;61956;52.540;13.382;2022-08-19T13:44:39;96380.91;;;25.22
73662;BMP280;61956;52.540;13.382;2022-08-19T13:47:08;96242.91;;;25.16
73662;BMP280;61956;52.540;13.382;2022-08-19T13:49:39;95447.81;;;24.98
73662;BMP280;61956;52.540;13.382;2022-08-19T13:52:12;95234.75;;;24.84
73662;BMP280;61956;52.540;13.382;2022-08-19T13:54:44;95046.06;;;24.74
73662;BMP280;61956;52.540;13.382;2022-08-19T13:57:16;95178.66;;;24.71
73662;BMP280;61956;52.540;13.382;2022-08-19T13:59:46;95791.38;;;24.77
73662;BMP280;61956;52.540;13.382;2022-08-19T14:02:15;95925.44;;;24.83
73662;BMP280;61956;52.540;13.382;2022-08-19T14:04:46;95841.84;;;24.82
73662;BMP280;61956;52.540;13.382;2022-08-19T14:07:15;95722.34;;;24.80
73662;BMP280;61956;52.540;13.382;2022-08-19T14:09:45;96276.53;;;24.88
73662;BMP280;61956;52.540;13.382;2022-08-19T14:12:25;96344.13;;;24.93
73662;BMP280;61956;52.540;13.382;2022-08-19T14:14:57;96529.84;;;24.98
73662;BMP280;61956;52.540;13.382;2022-08-19T14:17:28;96697.06;;;25.04
73662;BMP280;61956;52.540;13.382;2022-08-19T14:20:02;96557.28;;;25.04
73662;BMP280;61956;52.540;13.382;2022-08-19T14:22:34;96423.28;;;25.03